Time;durP1;ratioP1;P1;durP2;ratioP2;P2;SDS_P1;SDS_P2;PMS_P1;PMS_P2;Temp;Humidity;BMP_temperature;BMP_pressure;BME280_temperature;BME280_humidity;BME280_pressure;Samples;Min_cycle;Max_cycle;Signal;HPM_P1;HPM_P2
2023/10/25 00:00:44;;;;;;;8.48;4.60;;;;;;;11.70;78.85;99852.28;2090190;28;20041;-76
2023/10/25 00:01:46;;;;;;;7.47;4.88;;;;;;;11.69;79.02;99853.34;2090367;28;20156;-76
2023/10/25 00:02:50;;;;;;;8.10;4.85;;;;;;;11.69;79.12;99856.03;2090111;28;20868;-76
2023/10/25 00:03:54;;;;;;;8.40;4.93;;;;;;;11.70;78.95;99852.28;2082197;28;20180;-75
2023/10/25 00:04:58;;;;;;;7.68;4.70;;;;;;;11.69;79.22;99861.44;2090611;28;20160;-76
2023/10/25 00:05:59;;;;;;;8.68;5.07;;;;;;;11.70;79.24;99854.97;2098342;28;20087;-76
2023/10/25 00:07:01;;;;;;;8.07;4.90;;;;;;;11.68;79.21;99854.47;2098395;28;20036;-76
2023/10/25 00:08:02;;;;;;;10.15;5.10;;;;;;;11.62;79.51;99839.50;2098017;28;20041;-76
2023/10/25 00:09:06;;;;;;;9.38;4.97;;;;;;;11.66;79.50;99840.50;2090490;28;20041;-76
2023/10/25 00:10:10;;;;;;;9.93;5.20;;;;;;;11.67;79.61;99839.41;2084300;28;20864;-75
2023/10/25 00:11:12;;;;;;;8.63;4.93;;;;;;;11.67;79.66;99844.00;2098458;28;20040;-75
2023/10/25 00:12:22;;;;;;;10.25;5.40;;;;;;;11.67;79.70;99846.69;2090359;28;20040;-75
2023/10/25 00:13:26;;;;;;;9.00;5.38;;;;;;;11.66;79.47;99835.09;2083369;28;20754;-76
2023/10/25 00:14:35;;;;;;;10.98;5.97;;;;;;;11.66;79.61;99850.47;2090698;28;20040;-76
2023/10/25 00:15:41;;;;;;;10.13;5.82;;;;;;;11.66;79.80;99842.38;2098333;28;20036;-76
2023/10/25 00:16:43;;;;;;;10.40;5.40;;;;;;;11.63;79.59;99843.78;2090547;28;20033;-76
2023/10/25 00:17:44;;;;;;;10.88;5.80;;;;;;;11.62;80.01;99849.50;2095597;28;20828;-75
2023/10/25 00:18:47;;;;;;;11.38;6.53;;;;;;;11.56;79.77;99832.63;2106969;27;20131;-75
2023/10/25 00:19:52;;;;;;;12.32;6.25;;;;;;;11.63;79.87;99846.47;2114647;28;20875;-76
2023/10/25 00:20:56;;;;;;;10.55;6.22;;;;;;;11.62;79.95;99852.97;2106471;28;20033;-75
2023/10/25 00:22:04;;;;;;;10.18;5.72;;;;;;;11.61;80.11;99864.84;2107371;28;20874;-75
2023/10/25 00:23:06;;;;;;;12.43;6.55;;;;;;;11.60;80.31;99847.09;2115198;28;20043;-75
2023/10/25 00:24:11;;;;;;;11.35;7.03;;;;;;;11.59;80.01;99850.88;2098421;28;20852;-75
2023/10/25 00:25:16;;;;;;;13.02;6.82;;;;;;;11.57;80.17;99847.72;2099347;28;20033;-75
2023/10/25 00:26:17;;;;;;;9.88;6.47;;;;;;;11.57;80.13;99853.09;2098374;28;20040;-75
2023/10/25 00:27:26;;;;;;;11.45;6.82;;;;;;;11.55;80.54;99866.84;2109192;27;20040;-75
2023/10/25 00:28:29;;;;;;;12.77;7.20;;;;;;;11.55;80.25;99849.91;2105703;28;20143;-75
2023/10/25 00:29:31;;;;;;;12.25;7.65;;;;;;;11.50;80.58;99847.31;2090258;28;20076;-75
2023/10/25 00:30:35;;;;;;;12.93;8.05;;;;;;;11.52;80.48;99847.81;2089545;28;20049;-75
2023/10/25 00:31:48;;;;;;;14.07;7.60;;;;;;;11.48;80.68;99844.94;2099595;28;20032;-76
2023/10/25 00:32:51;;;;;;;13.52;7.72;;;;;;;11.47;80.69;99848.69;2112116;27;20047;-76
2023/10/25 00:33:52;;;;;;;13.57;7.65;;;;;;;11.47;80.68;99847.91;2090179;28;20919;-76
2023/10/25 00:34:57;;;;;;;13.98;7.72;;;;;;;11.44;80.91;99856.59;2090287;28;20029;-76
2023/10/25 00:35:58;;;;;;;13.35;8.10;;;;;;;11.45;80.72;99848.22;2098746;28;20143;-76
2023/10/25 00:37:08;;;;;;;12.35;8.07;;;;;;;11.44;80.64;99843.13;2090761;28;20852;-76
2023/10/25 00:38:15;;;;;;;14.30;8.75;;;;;;;11.42;80.98;99848.03;2093122;28;20844;-76
2023/10/25 00:39:17;;;;;;;13.48;8.15;;;;;;;11.37;80.87;99838.16;2090660;28;20033;-76
2023/10/25 00:40:19;;;;;;;14.77;7.65;;;;;;;11.39;81.27;99845.94;2096081;28;20222;-76
2023/10/25 00:41:24;;;;;;;15.57;8.13;;;;;;;11.40;81.25;99858.28;2089448;28;20907;-76
2023/10/25 00:42:28;;;;;;;14.80;8.45;;;;;;;11.37;81.37;99843.53;2083656;28;20032;-76
2023/10/25 00:43:30;;;;;;;12.43;8.55;;;;;;;11.35;81.04;99849.25;2098246;28;20033;-76
2023/10/25 00:44:33;;;;;;;13.98;8.80;;;;;;;11.32;81.24;99831.00;2081524;28;20053;-77
2023/10/25 00:45:42;;;;;;;16.27;8.45;;;;;;;11.33;81.02;99842.56;2074346;28;20944;-76
2023/10/25 00:46:46;;;;;;;16.42;9.02;;;;;;;11.31;80.95;99829.38;2098219;28;20886;-76
2023/10/25 00:47:50;;;;;;;15.27;8.70;;;;;;;11.28;81.66;99835.38;2105068;27;20122;-76
2023/10/25 00:48:56;;;;;;;19.10;8.98;;;;;;;11.30;81.27;99838.56;2098182;28;20029;-76
2023/10/25 00:49:58;;;;;;;16.98;9.27;;;;;;;11.29;81.32;99834.28;2098857;28;20160;-76
2023/10/25 00:51:00;;;;;;;17.52;9.13;;;;;;;11.26;81.59;99837.59;2098337;28;20037;-76
2023/10/25 00:52:05;;;;;;;17.63;9.50;;;;;;;11.25;81.31;99838.66;2106515;28;20110;-76
2023/10/25 00:53:07;;;;;;;17.15;9.38;;;;;;;11.24;81.81;99839.75;2097523;28;20835;-76
2023/10/25 00:54:11;;;;;;;16.83;9.05;;;;;;;11.22;81.79;99841.94;2098306;28;20068;-76
2023/10/25 00:55:18;;;;;;;18.52;9.93;;;;;;;11.21;81.77;99836.88;2081836;28;20038;-76
2023/10/25 00:56:25;;;;;;;18.27;10.00;;;;;;;11.21;81.72;99845.75;2083076;28;20090;-77
2023/10/25 00:57:27;;;;;;;18.45;10.43;;;;;;;11.20;81.79;99829.91;2082431;28;20045;-76
2023/10/25 00:58:29;;;;;;;20.25;10.02;;;;;;;11.18;81.63;99838.28;2073618;28;20081;-76
2023/10/25 00:59:31;;;;;;;16.83;9.98;;;;;;;11.17;81.94;99834.00;2073738;28;20109;-76
2023/10/25 01:00:36;;;;;;;18.42;9.68;;;;;;;11.14;82.05;99831.91;2098596;28;21047;-76
2023/10/25 01:01:41;;;;;;;17.88;10.20;;;;;;;11.14;81.94;99837.28;2089820;28;20131;-76
2023/10/25 01:02:45;;;;;;;17.58;9.93;;;;;;;11.13;82.28;99833.00;2073210;28;20034;-76
2023/10/25 01:03:47;;;;;;;18.13;9.93;;;;;;;11.08;82.34;99835.78;2097986;28;20110;-75
2023/10/25 01:04:50;;;;;;;21.58;10.70;;;;;;;11.10;82.16;99829.03;2098029;28;20867;-76
2023/10/25 01:05:51;;;;;;;19.17;11.02;;;;;;;11.06;82.54;99819.16;2081805;28;20738;-75
2023/10/25 01:06:53;;;;;;;21.90;11.15;;;;;;;11.09;82.37;99830.09;2081521;28;20144;-75
2023/10/25 01:08:01;;;;;;;18.15;10.30;;;;;;;11.08;82.60;99825.03;2082299;28;20058;-74
2023/10/25 01:09:05;;;;;;;23.58;10.50;;;;;;;11.05;82.87;99818.34;2074576;28;20150;-74
2023/10/25 01:10:09;;;;;;;18.10;9.95;;;;;;;11.04;82.71;99818.66;2082698;28;20872;-74
2023/10/25 01:11:12;;;;;;;17.55;10.10;;;;;;;11.05;82.45;99821.03;2089771;28;20164;-74
2023/10/25 01:12:14;;;;;;;19.75;10.30;;;;;;;11.04;82.54;99818.66;2081295;28;20178;-75
2023/10/25 01:13:18;;;;;;;18.23;9.52;;;;;;;11.01;82.99;99813.88;2089872;28;20073;-75
2023/10/25 01:14:19;;;;;;;17.88;10.50;;;;;;;11.00;82.77;99823.03;2089971;28;20038;-75
2023/10/25 01:15:23;;;;;;;16.17;9.25;;;;;;;11.01;82.70;99821.94;2074059;28;20049;-75
2023/10/25 01:16:24;;;;;;;17.88;10.32;;;;;;;11.01;82.50;99816.56;2073279;28;20031;-75
2023/10/25 01:17:28;;;;;;;17.65;9.75;;;;;;;10.99;83.20;99816.06;2073934;28;20042;-75
2023/10/25 01:18:33;;;;;;;17.63;9.50;;;;;;;10.97;82.91;99819.06;2094077;28;20064;-75
2023/10/25 01:19:35;;;;;;;16.35;9.52;;;;;;;10.98;83.16;99819.84;2106197;28;20040;-75
2023/10/25 01:20:40;;;;;;;17.33;9.57;;;;;;;10.93;82.87;99811.88;2097915;28;20156;-75
2023/10/25 01:21:43;;;;;;;17.63;9.63;;;;;;;10.96;83.32;99827.41;2098391;28;20033;-75
2023/10/25 01:22:48;;;;;;;15.85;9.07;;;;;;;10.97;82.84;99826.31;2098260;28;20159;-75
2023/10/25 01:23:55;;;;;;;19.13;9.95;;;;;;;10.96;83.01;99811.28;2098939;28;20029;-76
2023/10/25 01:25:04;;;;;;;18.38;9.48;;;;;;;10.93;83.20;99803.81;2091377;28;20077;-75
2023/10/25 01:26:06;;;;;;;17.00;9.73;;;;;;;10.96;83.17;99811.28;2090811;28;20045;-75
2023/10/25 01:27:11;;;;;;;21.23;10.02;;;;;;;10.97;83.03;99815.56;2090284;28;20041;-75
2023/10/25 01:28:14;;;;;;;20.98;9.93;;;;;;;10.95;83.21;99809.69;2082800;28;20057;-75
2023/10/25 01:29:15;;;;;;;18.00;9.68;;;;;;;10.95;83.39;99810.50;2089398;28;20048;-75
2023/10/25 01:30:17;;;;;;;18.10;9.52;;;;;;;10.94;83.52;99811.59;2089558;28;20033;-75
2023/10/25 01:31:22;;;;;;;17.25;9.27;;;;;;;10.96;83.11;99811.28;2090003;28;20900;-75
2023/10/25 01:32:24;;;;;;;18.75;10.20;;;;;;;10.94;82.97;99814.28;2074453;28;20113;-75
2023/10/25 01:33:27;;;;;;;18.08;9.60;;;;;;;10.94;83.21;99813.47;2080824;28;20888;-75
2023/10/25 01:34:30;;;;;;;19.40;10.48;;;;;;;10.96;83.46;99811.28;2106409;28;20033;-75
2023/10/25 01:35:33;;;;;;;18.98;9.85;;;;;;;10.95;83.31;99807.00;2097110;28;20164;-75
2023/10/25 01:36:35;;;;;;;20.65;10.98;;;;;;;10.95;83.46;99801.63;2082114;28;20030;-75
2023/10/25 01:37:36;;;;;;;19.25;10.55;;;;;;;10.93;83.29;99795.75;2098035;28;20152;-75
2023/10/25 01:38:38;;;;;;;18.55;9.75;;;;;;;10.95;83.42;99804.31;2106883;28;20951;-75
2023/10/25 01:39:40;;;;;;;22.92;9.93;;;;;;;10.96;83.33;99800.53;2097791;28;20037;-75
2023/10/25 01:40:42;;;;;;;17.88;10.40;;;;;;;10.96;83.46;99800.53;2094148;28;20036;-75
2023/10/25 01:41:47;;;;;;;19.95;10.48;;;;;;;10.97;83.75;99799.41;2105726;28;20060;-75
2023/10/25 01:42:53;;;;;;;20.55;9.57;;;;;;;10.94;83.13;99791.94;2090127;28;20034;-75
2023/10/25 01:43:55;;;;;;;21.15;10.25;;;;;;;10.94;83.36;99787.38;2090459;28;20164;-75
2023/10/25 01:45:02;;;;;;;19.90;10.30;;;;;;;10.96;83.34;99795.94;2089943;28;20037;-75
2023/10/25 01:46:05;;;;;;;22.35;10.60;;;;;;;10.98;83.22;99798.34;2090489;28;20315;-76
2023/10/25 01:47:12;;;;;;;17.33;9.82;;;;;;;10.98;83.58;99788.38;2090194;28;20868;-76
2023/10/25 01:48:21;;;;;;;19.25;10.45;;;;;;;10.99;83.71;99789.16;2098886;28;20167;-76
2023/10/25 01:49:22;;;;;;;21.10;10.75;;;;;;;10.99;83.34;99789.16;2089796;28;20029;-75
2023/10/25 01:50:24;;;;;;;21.83;11.65;;;;;;;11.00;83.73;99782.69;2089704;28;20861;-75
2023/10/25 01:51:29;;;;;;;22.90;11.02;;;;;;;10.98;83.72;99779.50;2097926;28;20083;-76
2023/10/25 01:52:31;;;;;;;20.13;11.30;;;;;;;11.01;83.76;99778.91;2098247;28;20899;-74
2023/10/25 01:53:38;;;;;;;20.63;10.95;;;;;;;11.01;83.73;99778.91;2081407;28;20969;-73
2023/10/25 01:54:45;;;;;;;21.25;11.32;;;;;;;11.00;83.47;99774.59;2083778;28;20045;-74
2023/10/25 01:55:50;;;;;;;22.17;11.48;;;;;;;11.02;83.60;99777.81;2081818;28;20167;-74
2023/10/25 01:56:55;;;;;;;21.52;11.57;;;;;;;11.02;83.88;99775.91;2090745;28;20037;-74
2023/10/25 01:57:57;;;;;;;19.77;11.80;;;;;;;10.99;83.46;99768.44;2097991;28;20937;-73
2023/10/25 01:58:59;;;;;;;20.67;11.25;;;;;;;11.02;83.40;99772.44;2093615;28;20041;-74
2023/10/25 02:00:03;;;;;;;20.55;10.95;;;;;;;11.01;83.67;99770.84;2089354;28;20111;-74
2023/10/25 02:01:14;;;;;;;18.25;10.60;;;;;;;11.03;83.83;99768.63;2092917;28;20034;-74
2023/10/25 02:02:18;;;;;;;20.58;10.30;;;;;;;10.97;83.75;99761.75;2089688;28;20896;-74
2023/10/25 02:03:21;;;;;;;20.45;10.55;;;;;;;11.04;83.63;99764.88;2081778;28;20936;-74
2023/10/25 02:04:23;;;;;;;19.25;10.68;;;;;;;11.00;83.85;99759.28;2098185;28;20045;-74
2023/10/25 02:05:26;;;;;;;22.58;11.63;;;;;;;11.03;83.58;99772.13;2080905;28;20034;-73
2023/10/25 02:06:28;;;;;;;19.30;10.90;;;;;;;10.98;84.17;99763.38;2073594;28;20030;-73
2023/10/25 02:07:32;;;;;;;18.63;10.70;;;;;;;11.03;84.27;99769.41;2073274;28;20785;-74
2023/10/25 02:08:34;;;;;;;18.48;10.65;;;;;;;11.00;83.83;99764.66;2073714;28;20085;-74
2023/10/25 02:09:35;;;;;;;17.70;9.88;;;;;;;11.01;83.72;99760.88;2073265;28;20043;-74
2023/10/25 02:10:36;;;;;;;18.52;10.43;;;;;;;10.99;84.24;99756.88;2101350;28;20981;-74
2023/10/25 02:11:37;;;;;;;18.35;10.07;;;;;;;11.02;84.43;99762.47;2097667;28;20037;-73
2023/10/25 02:12:42;;;;;;;15.60;9.13;;;;;;;11.00;84.07;99764.66;2098295;28;20148;-74
2023/10/25 02:13:46;;;;;;;17.13;9.98;;;;;;;11.02;84.01;99758.97;2101590;28;20158;-74
2023/10/25 02:14:49;;;;;;;16.70;9.63;;;;;;;11.04;84.11;99767.56;2090470;28;20037;-74
2023/10/25 02:15:50;;;;;;;15.98;9.50;;;;;;;11.04;83.98;99772.94;2090246;28;21404;-74
2023/10/25 02:16:53;;;;;;;18.23;9.52;;;;;;;11.04;84.32;99756.78;2091178;28;20030;-74
2023/10/25 02:17:56;;;;;;;16.52;9.43;;;;;;;11.00;84.04;99750.41;2091200;28;20077;-74
2023/10/25 02:18:58;;;;;;;17.05;9.73;;;;;;;11.04;84.38;99765.66;2086435;28;20033;-74
2023/10/25 02:20:05;;;;;;;17.55;9.02;;;;;;;10.97;84.07;99741.06;2091868;28;20034;-74
2023/10/25 02:21:08;;;;;;;17.92;9.70;;;;;;;11.05;84.38;99759.16;2107358;28;20032;-74
2023/10/25 02:22:09;;;;;;;16.00;9.02;;;;;;;10.98;84.02;99741.84;2099182;28;20040;-74
2023/10/25 02:23:11;;;;;;;15.57;8.90;;;;;;;10.99;84.69;99746.13;2090767;28;20041;-74
2023/10/25 02:24:18;;;;;;;17.15;8.98;;;;;;;11.02;84.24;99750.91;2091780;28;20835;-74
2023/10/25 02:25:19;;;;;;;17.05;9.68;;;;;;;11.02;84.34;99746.31;2082100;28;20057;-74
2023/10/25 02:26:23;;;;;;;16.90;9.40;;;;;;;11.01;84.67;99747.44;2083333;28;20795;-74
2023/10/25 02:27:25;;;;;;;14.40;8.90;;;;;;;11.03;84.29;99753.28;2099143;28;20037;-74
2023/10/25 02:28:27;;;;;;;14.32;8.07;;;;;;;11.03;84.64;99742.53;2107829;28;20086;-74
2023/10/25 02:29:28;;;;;;;15.32;8.95;;;;;;;11.01;84.03;99752.00;2090667;28;20045;-74
2023/10/25 02:30:31;;;;;;;16.50;9.10;;;;;;;11.04;84.47;99748.72;2082570;28;20120;-74
2023/10/25 02:31:36;;;;;;;15.98;8.32;;;;;;;11.04;84.62;99746.03;2099239;28;20041;-74
2023/10/25 02:32:42;;;;;;;14.63;8.80;;;;;;;11.02;84.55;99745.53;2108103;28;20025;-74
2023/10/25 02:33:52;;;;;;;17.00;8.50;;;;;;;10.98;84.56;99741.84;2098847;28;20040;-75
2023/10/25 02:34:59;;;;;;;15.68;8.48;;;;;;;11.02;84.35;99745.53;2107844;28;20862;-75
2023/10/25 02:36:04;;;;;;;14.52;8.57;;;;;;;10.99;84.14;99727.31;2106953;28;20158;-74
2023/10/25 02:37:05;;;;;;;13.75;8.13;;;;;;;11.01;84.48;99738.56;2107442;28;20024;-74
2023/10/25 02:38:11;;;;;;;13.85;7.75;;;;;;;10.97;84.53;99722.25;2124282;27;20035;-74
2023/10/25 02:39:17;;;;;;;14.80;7.90;;;;;;;11.00;84.75;99735.09;2106753;28;20071;-74
2023/10/25 02:40:18;;;;;;;13.80;8.20;;;;;;;11.00;84.66;99729.72;2099099;28;20041;-74
2023/10/25 02:41:28;;;;;;;19.13;9.23;;;;;;;11.00;85.01;99740.47;2098724;28;20041;-75
2023/10/25 02:42:33;;;;;;;14.38;8.23;;;;;;;10.99;84.99;99730.00;2092575;28;20037;-74
2023/10/25 02:43:34;;;;;;;15.52;8.70;;;;;;;10.97;84.88;99737.56;2090881;28;20816;-75
2023/10/25 02:44:36;;;;;;;15.05;8.27;;;;;;;10.96;85.18;99730.59;2090965;28;20096;-75
2023/10/25 02:45:39;;;;;;;15.48;8.15;;;;;;;10.98;84.76;99739.16;2082968;28;20073;-74
2023/10/25 02:46:43;;;;;;;14.35;8.48;;;;;;;10.95;84.82;99729.81;2090690;28;20041;-74
2023/10/25 02:47:44;;;;;;;17.00;8.00;;;;;;;10.97;85.40;99732.19;2107629;28;20118;-75
2023/10/25 02:48:52;;;;;;;15.20;8.07;;;;;;;10.95;85.62;99729.00;2106740;28;20036;-74
2023/10/25 02:49:55;;;;;;;14.25;8.30;;;;;;;10.96;85.21;99730.59;2088218;28;20037;-74
2023/10/25 02:50:59;;;;;;;16.70;8.27;;;;;;;10.97;85.56;99721.41;2091224;28;20057;-74
2023/10/25 02:52:01;;;;;;;16.58;8.75;;;;;;;10.94;85.69;99722.84;2090505;28;20232;-73
2023/10/25 02:53:05;;;;;;;14.95;8.35;;;;;;;10.96;85.37;99722.53;2082439;28;20042;-74
2023/10/25 02:54:07;;;;;;;15.30;8.45;;;;;;;10.96;85.48;99725.22;2082863;28;20034;-74
2023/10/25 02:55:12;;;;;;;16.88;8.60;;;;;;;10.95;85.84;99723.63;2098882;28;20047;-73
2023/10/25 02:56:16;;;;;;;13.73;7.95;;;;;;;10.94;86.01;99722.00;2090708;28;21117;-74
2023/10/25 02:57:22;;;;;;;15.98;8.20;;;;;;;10.94;86.18;99724.72;2075296;28;20169;-74
2023/10/25 02:58:29;;;;;;;16.60;8.88;;;;;;;10.94;85.98;99720.16;2083944;28;21282;-74
2023/10/25 02:59:34;;;;;;;15.75;8.80;;;;;;;10.95;86.49;99720.94;2107695;28;20035;-74
2023/10/25 03:00:37;;;;;;;15.65;8.25;;;;;;;10.89;86.47;99726.41;2105936;28;20043;-74
2023/10/25 03:01:45;;;;;;;15.65;8.48;;;;;;;10.92;86.29;99710.78;2091653;28;20040;-74
2023/10/25 03:02:46;;;;;;;16.88;8.50;;;;;;;10.94;86.84;99732.78;2098226;28;20033;-73
2023/10/25 03:03:47;;;;;;;15.70;7.97;;;;;;;10.92;86.10;99713.47;2081983;28;20038;-73
2023/10/25 03:04:48;;;;;;;20.27;9.93;;;;;;;10.87;86.49;99707.09;2092067;28;20061;-74
2023/10/25 03:05:53;;;;;;;17.25;8.75;;;;;;;10.90;86.89;99711.84;2098523;28;20033;-74
2023/10/25 03:06:58;;;;;;;17.05;9.23;;;;;;;10.92;86.84;99725.03;2091461;28;20033;-74
2023/10/25 03:08:05;;;;;;;21.27;9.57;;;;;;;10.92;86.60;99716.94;2090280;28;20021;-74
2023/10/25 03:09:10;;;;;;;18.52;9.52;;;;;;;10.91;87.00;99718.06;2092710;28;20164;-74
2023/10/25 03:10:14;;;;;;;17.40;8.98;;;;;;;10.92;87.33;99718.84;2098626;28;21082;-74
2023/10/25 03:11:15;;;;;;;17.48;8.55;;;;;;;10.90;87.29;99716.44;2089776;28;20188;-74
2023/10/25 03:12:19;;;;;;;19.33;9.65;;;;;;;10.88;87.56;99715.97;2081869;28;21061;-74
2023/10/25 03:13:21;;;;;;;17.17;9.18;;;;;;;10.88;87.57;99711.38;2090708;28;20060;-74
2023/10/25 03:14:23;;;;;;;18.67;9.73;;;;;;;10.89;87.27;99726.41;2098594;28;20836;-74
2023/10/25 03:15:27;;;;;;;19.98;9.85;;;;;;;10.86;87.59;99710.09;2098804;28;20045;-74
2023/10/25 03:16:32;;;;;;;20.77;9.35;;;;;;;10.85;87.47;99708.50;2082463;28;20041;-73
2023/10/25 03:17:37;;;;;;;18.08;9.90;;;;;;;10.87;87.72;99720.53;2074900;28;20034;-74
2023/10/25 03:18:43;;;;;;;16.90;9.60;;;;;;;10.86;88.22;99712.78;2075381;28;20069;-74
2023/10/25 03:19:46;;;;;;;17.85;9.75;;;;;;;10.86;88.38;99721.63;2081591;28;20810;-74
2023/10/25 03:20:50;;;;;;;21.58;11.13;;;;;;;10.86;88.05;99729.69;2082187;28;20117;-74
2023/10/25 03:21:55;;;;;;;19.88;10.23;;;;;;;10.86;87.92;99720.84;2082974;28;20038;-73
2023/10/25 03:22:57;;;;;;;18.65;9.43;;;;;;;10.81;88.25;99716.38;2082489;28;20038;-74
2023/10/25 03:24:02;;;;;;;20.00;9.82;;;;;;;10.83;88.70;99705.31;2090448;28;20025;-74
2023/10/25 03:25:08;;;;;;;18.13;9.98;;;;;;;10.82;88.74;99706.41;2098793;28;20040;-74
2023/10/25 03:26:14;;;;;;;18.83;9.65;;;;;;;10.83;88.87;99702.63;2090891;28;20037;-74
2023/10/25 03:27:18;;;;;;;18.88;9.65;;;;;;;10.82;88.74;99711.78;2090670;28;20868;-73
2023/10/25 03:28:22;;;;;;;19.90;9.60;;;;;;;10.79;88.56;99710.50;2082500;28;20033;-74
2023/10/25 03:29:23;;;;;;;18.10;9.73;;;;;;;10.79;89.45;99699.75;2090899;28;20178;-74
2023/10/25 03:30:27;;;;;;;20.50;10.13;;;;;;;10.81;89.22;99713.69;2098781;28;21022;-73
2023/10/25 03:31:30;;;;;;;18.85;9.82;;;;;;;10.81;89.30;99712.88;2087536;28;20053;-73
2023/10/25 03:32:33;;;;;;;23.15;10.07;;;;;;;10.81;89.00;99710.19;2082442;28;20042;-73
2023/10/25 03:33:38;;;;;;;19.15;9.93;;;;;;;10.80;89.10;99700.53;2098819;28;20041;-73
2023/10/25 03:35:00;;;;;;;19.33;10.20;;;;;;;10.77;89.79;99699.22;2097025;28;20079;-73
2023/10/25 03:36:04;;;;;;;16.92;9.32;;;;;;;10.75;89.64;99698.75;2087348;28;20037;-73
2023/10/25 03:37:05;;;;;;;19.38;9.52;;;;;;;10.78;89.85;99700.03;2082490;28;20729;-73
2023/10/25 03:38:08;;;;;;;18.80;9.90;;;;;;;10.73;89.64;99700.94;2082441;28;20884;-73
2023/10/25 03:39:15;;;;;;;18.55;9.77;;;;;;;10.75;90.17;99697.94;2090703;28;20887;-73
2023/10/25 03:40:19;;;;;;;19.17;9.90;;;;;;;10.73;90.06;99706.31;2083195;28;20033;-73
2023/10/25 03:41:21;;;;;;;23.10;10.50;;;;;;;10.74;90.04;99701.72;2082507;28;20046;-72
2023/10/25 03:42:23;;;;;;;19.75;9.73;;;;;;;10.71;90.06;99697.75;2090719;28;20863;-73
2023/10/25 03:43:26;;;;;;;20.58;10.43;;;;;;;10.66;90.30;99689.81;2090599;28;20038;-73
2023/10/25 03:44:30;;;;;;;20.85;9.25;;;;;;;10.67;90.18;99697.56;2099150;28;20033;-73
2023/10/25 03:45:33;;;;;;;17.30;8.98;;;;;;;10.70;90.42;99701.53;2106358;28;20111;-73
2023/10/25 03:46:38;;;;;;;19.02;9.95;;;;;;;10.69;90.59;99710.72;2099353;28;20029;-73
2023/10/25 03:47:39;;;;;;;19.08;9.70;;;;;;;10.70;90.44;99696.16;2090448;28;20784;-73
2023/10/25 03:48:44;;;;;;;19.25;9.10;;;;;;;10.70;91.00;99696.16;2090540;28;20861;-73
2023/10/25 03:49:47;;;;;;;20.50;9.95;;;;;;;10.68;90.90;99693.75;2098009;28;20040;-73
2023/10/25 03:50:51;;;;;;;19.23;9.50;;;;;;;10.68;90.87;99690.28;2098698;28;20790;-74
2023/10/25 03:51:54;;;;;;;22.55;9.07;;;;;;;10.61;90.81;99679.94;2107017;28;20891;-73
2023/10/25 03:52:58;;;;;;;18.88;9.48;;;;;;;10.63;91.25;99693.88;2106921;28;20033;-74
2023/10/25 03:54:03;;;;;;;18.58;9.13;;;;;;;10.65;91.40;99693.56;2090314;28;20037;-73
2023/10/25 03:55:08;;;;;;;19.30;9.65;;;;;;;10.63;90.95;99690.41;2100177;28;20029;-73
2023/10/25 03:56:10;;;;;;;19.10;9.32;;;;;;;10.61;91.17;99689.88;2090468;28;20197;-73
2023/10/25 03:57:11;;;;;;;19.60;9.55;;;;;;;10.60;91.42;99688.31;2090675;28;20076;-73
2023/10/25 03:58:18;;;;;;;20.00;9.63;;;;;;;10.60;91.11;99685.63;2114894;28;20150;-73
2023/10/25 03:59:20;;;;;;;17.27;9.25;;;;;;;10.58;91.45;99682.44;2115222;28;20031;-73
2023/10/25 04:00:22;;;;;;;21.23;9.27;;;;;;;10.58;91.71;99688.59;2115281;28;20133;-73
2023/10/25 04:01:24;;;;;;;22.13;9.93;;;;;;;10.58;91.94;99683.22;2106983;28;20033;-75
2023/10/25 04:02:30;;;;;;;18.42;8.98;;;;;;;10.56;91.67;99687.28;2098654;28;20823;-74
2023/10/25 04:03:35;;;;;;;17.42;9.25;;;;;;;10.51;91.77;99674.78;2106827;28;20950;-74
2023/10/25 04:04:40;;;;;;;15.68;8.65;;;;;;;10.56;91.64;99684.59;2099238;28;20040;-74
2023/10/25 04:05:42;;;;;;;18.40;9.30;;;;;;;10.55;92.38;99683.03;2098643;28;20212;-75
2023/10/25 04:06:44;;;;;;;16.38;9.10;;;;;;;10.53;92.19;99680.66;2115484;28;20028;-75
2023/10/25 04:07:45;;;;;;;17.90;8.55;;;;;;;10.48;92.14;99690.69;2106305;28;20036;-75
2023/10/25 04:08:50;;;;;;;17.73;8.52;;;;;;;10.52;92.17;99670.97;2100203;28;20135;-75
2023/10/25 04:09:55;;;;;;;17.45;9.45;;;;;;;10.48;91.82;99671.88;2098042;28;20064;-75
2023/10/25 04:10:58;;;;;;;17.48;9.02;;;;;;;10.51;92.29;99677.44;2090468;28;20030;-75
2023/10/25 04:12:00;;;;;;;19.50;8.70;;;;;;;10.50;92.27;99669.69;2098739;28;20101;-75
2023/10/25 04:13:02;;;;;;;15.73;8.60;;;;;;;10.49;92.79;99676.16;2098287;28;20064;-76
2023/10/25 04:14:04;;;;;;;18.52;8.90;;;;;;;10.48;92.49;99677.25;2098286;28;21140;-77
2023/10/25 04:15:10;;;;;;;18.95;9.05;;;;;;;10.47;92.96;99673.00;2090030;28;20037;-74
2023/10/25 04:16:12;;;;;;;17.73;9.15;;;;;;;10.47;93.29;99673.00;2083434;28;20038;-74
2023/10/25 04:17:25;;;;;;;18.77;8.90;;;;;;;10.41;93.30;99672.28;2084296;28;20075;-76
2023/10/25 04:18:31;;;;;;;17.95;8.45;;;;;;;10.38;92.93;99665.63;2092500;28;20248;-73
2023/10/25 04:19:38;;;;;;;18.90;8.25;;;;;;;10.41;92.96;99667.72;2097789;28;20045;-73
2023/10/25 04:20:41;;;;;;;17.08;8.38;;;;;;;10.38;93.36;99659.44;2075580;28;20045;-74
2023/10/25 04:21:43;;;;;;;15.23;8.50;;;;;;;10.38;93.17;99654.88;2084999;28;20034;-75
2023/10/25 04:22:44;;;;;;;14.75;8.52;;;;;;;10.36;93.71;99657.03;2106678;28;20043;-75
2023/10/25 04:23:46;;;;;;;17.60;9.05;;;;;;;10.36;93.59;99658.94;2089805;28;20029;-74
2023/10/25 04:24:51;;;;;;;17.98;8.88;;;;;;;10.33;93.76;99652.28;2073971;28;20044;-74
2023/10/25 04:25:53;;;;;;;18.27;9.00;;;;;;;10.34;93.83;99661.13;2090333;28;20853;-74
2023/10/25 04:26:57;;;;;;;18.45;9.38;;;;;;;10.30;94.15;99650.19;2090104;28;21285;-75
2023/10/25 04:28:00;;;;;;;19.50;9.02;;;;;;;10.31;93.66;99645.59;2082328;28;20065;-74
2023/10/25 04:29:01;;;;;;;17.73;8.50;;;;;;;10.30;93.77;99655.56;2073664;28;20202;-75
2023/10/25 04:30:06;;;;;;;16.33;8.75;;;;;;;10.31;93.81;99651.78;2082211;28;20049;-75
2023/10/25 04:31:11;;;;;;;15.23;8.18;;;;;;;10.30;94.08;99644.81;2090480;28;20839;-73
2023/10/25 04:32:13;;;;;;;17.33;8.23;;;;;;;10.24;94.02;99645.97;2091156;28;20769;-74
2023/10/25 04:33:15;;;;;;;16.02;8.18;;;;;;;10.28;94.34;99652.38;2090145;28;20039;-74
2023/10/25 04:34:17;;;;;;;19.95;8.65;;;;;;;10.27;94.59;99649.97;2089709;28;20045;-74
2023/10/25 04:35:19;;;;;;;15.25;8.20;;;;;;;10.26;94.48;99654.56;2094757;28;20033;-75
2023/10/25 04:36:21;;;;;;;14.93;7.95;;;;;;;10.25;94.08;99647.56;2089461;28;20159;-74
2023/10/25 04:37:23;;;;;;;16.00;8.07;;;;;;;10.25;94.50;99658.31;2072819;28;20034;-75
2023/10/25 04:38:28;;;;;;;15.65;8.18;;;;;;;10.24;95.05;99651.34;2072505;28;20038;-75
2023/10/25 04:39:30;;;;;;;20.95;8.13;;;;;;;10.21;94.75;99642.00;2081555;28;20041;-75
2023/10/25 04:40:35;;;;;;;17.40;7.72;;;;;;;10.20;94.79;99645.78;2099658;28;20041;-75
2023/10/25 04:41:36;;;;;;;14.75;7.53;;;;;;;10.21;94.80;99646.56;2113887;28;20064;-75
2023/10/25 04:42:38;;;;;;;13.85;6.97;;;;;;;10.20;94.96;99634.22;2105824;28;20037;-75
2023/10/25 04:43:44;;;;;;;17.98;8.80;;;;;;;10.16;95.14;99634.03;2097477;28;20083;-76
2023/10/25 04:44:46;;;;;;;15.57;8.07;;;;;;;10.18;95.13;99641.78;2098280;28;20169;-75
2023/10/25 04:45:53;;;;;;;15.95;7.68;;;;;;;10.17;95.34;99638.31;2089229;28;20057;-75
2023/10/25 04:46:58;;;;;;;13.98;7.38;;;;;;;10.16;95.42;99633.25;2090623;28;20037;-76
2023/10/25 04:48:00;;;;;;;17.13;7.57;;;;;;;10.16;95.57;99622.50;2089210;28;20029;-76
2023/10/25 04:49:02;;;;;;;14.80;7.85;;;;;;;10.14;95.76;99630.06;2080432;28;20165;-76
2023/10/25 04:50:05;;;;;;;14.68;8.00;;;;;;;10.13;95.26;99636.53;2094430;28;20036;-76
2023/10/25 04:51:12;;;;;;;17.05;7.70;;;;;;;10.12;95.85;99634.91;2096941;28;20037;-76
2023/10/25 04:52:16;;;;;;;16.55;8.20;;;;;;;10.14;95.92;99635.41;2107560;28;20025;-75
2023/10/25 04:53:21;;;;;;;16.70;8.15;;;;;;;10.13;95.79;99628.47;2120407;27;20773;-76
2023/10/25 04:54:23;;;;;;;17.25;7.72;;;;;;;10.14;95.86;99632.75;2096937;28;20894;-75
2023/10/25 04:55:45;;;;;;;14.75;8.13;;;;;;;10.06;96.08;99622.69;2089506;28;20064;-75
2023/10/25 04:56:53;;;;;;;14.68;7.60;;;;;;;10.10;96.17;99624.47;2101264;28;20029;-75